Time;durP1;ratioP1;P1;durP2;ratioP2;P2;SDS_P1;SDS_P2;PMS_P1;PMS_P2;Temp;Humidity;BMP_temperature;BMP_pressure;BME280_temperature;BME280_humidity;BME280_pressure;Samples;Min_cycle;Max_cycle;Signal;HPM_P1;HPM_P2
2021/11/18 00:01:50;;;;;;;53.08;19.52;;;;;;;;;;5032606;28;20079;-65
2021/11/18 00:04:16;;;;;;;36.85;18.33;;;;;;;;;;5032265;28;20034;-65
2021/11/18 00:06:44;;;;;;;37.17;18.88;;;;;;;;;;5033457;28;20022;-66
2021/11/18 00:09:10;;;;;;;49.33;20.38;;;;;;;;;;5033662;28;20465;-66
2021/11/18 00:11:36;;;;;;;40.25;17.80;;;;;;;;;;5031685;28;20039;-65
2021/11/18 00:14:02;;;;;;;44.78;20.83;;;;;;;;;;5033600;28;20136;-65
2021/11/18 00:16:28;;;;;;;41.47;17.95;;;;;;;;;;5034089;28;20026;-65
2021/11/18 00:18:54;;;;;;;41.53;18.52;;;;;;;;;;5034948;28;20029;-65
2021/11/18 00:21:20;;;;;;;41.25;19.48;;;;;;;;;;5033467;28;20111;-65
2021/11/18 00:23:48;;;;;;;34.53;14.27;;;;;;;;;;5034396;28;20033;-66
2021/11/18 00:26:15;;;;;;;35.30;16.67;;;;;;;;;;5034599;28;20025;-65
2021/11/18 00:28:41;;;;;;;45.33;19.63;;;;;;;;;;5034694;28;20771;-65
2021/11/18 00:31:08;;;;;;;45.13;18.02;;;;;;;;;;5033539;28;20029;-66
2021/11/18 00:33:35;;;;;;;41.70;19.33;;;;;;;;;;5033121;28;20022;-66
2021/11/18 00:36:01;;;;;;;44.78;20.23;;;;;;;;;;5033033;28;20037;-65
2021/11/18 00:38:27;;;;;;;38.92;18.48;;;;;;;;;;5033221;28;20021;-65
2021/11/18 00:40:54;;;;;;;37.08;18.02;;;;;;;;;;5033564;28;20022;-65
2021/11/18 00:43:22;;;;;;;34.97;18.40;;;;;;;;;;5034060;28;20049;-66
2021/11/18 00:45:48;;;;;;;39.33;18.98;;;;;;;;;;5034203;28;20022;-66
2021/11/18 00:48:14;;;;;;;44.40;20.08;;;;;;;;;;5032879;28;20519;-65
2021/11/18 00:50:46;;;;;;;44.13;17.75;;;;;;;;;;5034098;28;20032;-66
2021/11/18 00:53:12;;;;;;;40.33;19.30;;;;;;;;;;5034000;28;20050;-65
2021/11/18 00:55:38;;;;;;;40.65;19.50;;;;;;;;;;5033923;28;20028;-65
2021/11/18 00:58:05;;;;;;;41.78;17.55;;;;;;;;;;5034035;28;20018;-66
2021/11/18 01:00:32;;;;;;;40.85;18.05;;;;;;;;;;5033757;28;20021;-66
2021/11/18 01:02:59;;;;;;;48.15;19.02;;;;;;;;;;5033964;28;20436;-65
2021/11/18 01:05:28;;;;;;;41.08;19.13;;;;;;;;;;5034171;28;20056;-66
2021/11/18 01:07:54;;;;;;;39.28;17.50;;;;;;;;;;5032401;28;20025;-66
2021/11/18 01:10:20;;;;;;;39.20;19.13;;;;;;;;;;5033912;28;20036;-65
2021/11/18 01:12:46;;;;;;;41.20;16.58;;;;;;;;;;5032236;28;20025;-65
2021/11/18 01:15:14;;;;;;;47.72;18.27;;;;;;;;;;5033912;28;20026;-65
2021/11/18 01:17:40;;;;;;;44.45;18.85;;;;;;;;;;5033830;28;20033;-66
2021/11/18 01:20:07;;;;;;;38.65;17.00;;;;;;;;;;5033800;28;20025;-65
2021/11/18 01:22:34;;;;;;;40.53;18.80;;;;;;;;;;5033329;28;20033;-65
2021/11/18 01:25:00;;;;;;;40.08;18.00;;;;;;;;;;5032332;28;20417;-65
2021/11/18 01:27:26;;;;;;;41.35;18.67;;;;;;;;;;5032215;28;20033;-65
2021/11/18 01:29:52;;;;;;;42.03;19.50;;;;;;;;;;5033489;28;20025;-66
2021/11/18 01:32:18;;;;;;;41.05;18.83;;;;;;;;;;5033601;28;20032;-66
2021/11/18 01:34:45;;;;;;;33.45;18.85;;;;;;;;;;5033480;28;20018;-66
2021/11/18 01:37:11;;;;;;;38.90;19.27;;;;;;;;;;5032055;28;20029;-65
2021/11/18 01:39:37;;;;;;;39.90;19.33;;;;;;;;;;5032134;28;20059;-65
2021/11/18 01:42:03;;;;;;;40.05;19.95;;;;;;;;;;5031843;28;20049;-64
2021/11/18 01:44:31;;;;;;;43.53;18.83;;;;;;;;;;5033353;28;20055;-66
2021/11/18 01:46:58;;;;;;;50.25;19.45;;;;;;;;;;5033344;28;20022;-66
2021/11/18 01:49:24;;;;;;;39.10;18.63;;;;;;;;;;5032992;28;20060;-66
2021/11/18 01:51:51;;;;;;;44.08;19.65;;;;;;;;;;5031470;28;20033;-65
2021/11/18 01:54:17;;;;;;;43.20;20.33;;;;;;;;;;5033184;28;20029;-66
2021/11/18 01:56:44;;;;;;;36.92;18.38;;;;;;;;;;5031903;28;20465;-65
2021/11/18 01:59:13;;;;;;;41.65;20.67;;;;;;;;;;5032950;28;20022;-65
2021/11/18 02:01:40;;;;;;;38.83;18.95;;;;;;;;;;5032758;28;20028;-65
2021/11/18 02:04:14;;;;;;;39.78;19.05;;;;;;;;;;5032676;28;20033;-66
2021/11/18 02:06:45;;;;;;;35.70;17.30;;;;;;;;;;5031856;28;20025;-65
2021/11/18 02:09:16;;;;;;;36.38;18.33;;;;;;;;;;5031544;28;20033;-65
2021/11/18 02:11:44;;;;;;;39.67;19.83;;;;;;;;;;5032495;28;20481;-65
2021/11/18 02:14:11;;;;;;;38.60;20.08;;;;;;;;;;5033557;28;20474;-66
2021/11/18 02:16:38;;;;;;;35.60;18.05;;;;;;;;;;5032648;28;20026;-65
2021/11/18 02:19:07;;;;;;;32.70;18.45;;;;;;;;;;5032750;28;20028;-65
2021/11/18 02:21:33;;;;;;;57.47;20.95;;;;;;;;;;5033135;28;20520;-64
2021/11/18 02:24:02;;;;;;;41.17;19.35;;;;;;;;;;5032760;28;20030;-65
2021/11/18 02:26:28;;;;;;;38.00;19.63;;;;;;;;;;5032440;28;20059;-65
2021/11/18 02:28:55;;;;;;;37.40;19.45;;;;;;;;;;5032739;28;20030;-66
2021/11/18 02:31:39;;;;;;;41.35;19.50;;;;;;;;;;5032400;28;20393;-66
2021/11/18 02:34:10;;;;;;;43.03;19.25;;;;;;;;;;5031060;28;20108;-65
2021/11/18 02:36:36;;;;;;;34.50;18.35;;;;;;;;;;5031004;28;20049;-66
2021/11/18 02:39:03;;;;;;;40.47;18.48;;;;;;;;;;5031385;28;20021;-65
2021/11/18 02:41:29;;;;;;;45.40;20.55;;;;;;;;;;5031007;28;20471;-65
2021/11/18 02:43:55;;;;;;;35.42;17.17;;;;;;;;;;5032268;28;20104;-66
2021/11/18 02:46:21;;;;;;;39.10;19.92;;;;;;;;;;5030974;28;20107;-65
2021/11/18 02:48:47;;;;;;;33.75;17.33;;;;;;;;;;5032106;28;20025;-66
2021/11/18 02:51:15;;;;;;;40.22;19.73;;;;;;;;;;5030942;28;20134;-66
2021/11/18 02:53:41;;;;;;;37.65;18.52;;;;;;;;;;5032383;28;20096;-65
2021/11/18 02:56:07;;;;;;;36.65;14.45;;;;;;;;;;5032245;28;20037;-65
2021/11/18 02:58:34;;;;;;;42.33;19.30;;;;;;;;;;5032327;28;20026;-63
2021/11/18 03:01:03;;;;;;;40.97;19.52;;;;;;;;;;5032471;28;20025;-66
2021/11/18 03:03:29;;;;;;;;;;;;;;;;;;5032475;28;20029;-65
2021/11/18 03:05:56;;;;;;;37.75;19.60;;;;;;;;;;5032351;28;19972;-65
2021/11/18 03:08:23;;;;;;;42.92;19.35;;;;;;;;;;5030992;28;20553;-65
2021/11/18 03:10:49;;;;;;;40.72;19.48;;;;;;;;;;5030963;28;20037;-65
2021/11/18 03:13:16;;;;;;;37.13;19.30;;;;;;;;;;5031902;28;20025;-65
2021/11/18 03:15:42;;;;;;;39.92;18.42;;;;;;;;;;5030714;28;20021;-66
2021/11/18 03:18:08;;;;;;;37.70;17.70;;;;;;;;;;5030854;28;20017;-66
2021/11/18 03:20:34;;;;;;;36.67;18.40;;;;;;;;;;5030861;28;20029;-65
2021/11/18 03:23:00;;;;;;;41.30;18.70;;;;;;;;;;5033815;28;20026;-65
2021/11/18 03:25:28;;;;;;;35.20;18.17;;;;;;;;;;5035796;28;20496;-65
2021/11/18 03:27:54;;;;;;;41.77;19.07;;;;;;;;;;5034517;28;20083;-66
2021/11/18 03:30:25;;;;;;;30.60;15.60;;;;;;;;;;5035603;28;20029;-65
2021/11/18 03:32:52;;;;;;;41.95;18.08;;;;;;;;;;5033980;28;20030;-66
2021/11/18 03:35:18;;;;;;;34.55;16.15;;;;;;;;;;5035497;28;20029;-65
2021/11/18 03:37:44;;;;;;;38.17;17.08;;;;;;;;;;5034221;28;20029;-66
2021/11/18 03:40:11;;;;;;;34.40;17.50;;;;;;;;;;5034360;28;20112;-66
2021/11/18 03:42:37;;;;;;;37.00;16.90;;;;;;;;;;5035744;28;20030;-65
2021/11/18 03:45:04;;;;;;;39.55;17.85;;;;;;;;;;5034195;28;20053;-63
2021/11/18 03:47:30;;;;;;;43.17;19.70;;;;;;;;;;5036032;28;20030;-64
2021/11/18 03:49:56;;;;;;;36.53;17.58;;;;;;;;;;5035267;28;20132;-63
2021/11/18 03:52:22;;;;;;;36.85;18.02;;;;;;;;;;5033899;28;20493;-64
2021/11/18 03:54:48;;;;;;;35.28;16.00;;;;;;;;;;5033988;28;20022;-63
2021/11/18 03:57:15;;;;;;;38.58;18.52;;;;;;;;;;5035215;28;20021;-63
2021/11/18 03:59:42;;;;;;;36.78;16.48;;;;;;;;;;5035384;28;20021;-64
2021/11/18 04:02:09;;;;;;;37.47;18.98;;;;;;;;;;5034944;28;20056;-63
2021/11/18 04:04:37;;;;;;;43.63;20.33;;;;;;;;;;5035284;28;20442;-66
2021/11/18 04:07:03;;;;;;;34.80;17.25;;;;;;;;;;5034902;28;20470;-63
2021/11/18 04:09:29;;;;;;;38.42;18.23;;;;;;;;;;5034970;28;20096;-63
2021/11/18 04:11:59;;;;;;;41.88;18.17;;;;;;;;;;5033970;28;20029;-64
2021/11/18 04:14:26;;;;;;;40.80;19.23;;;;;;;;;;5036212;28;20089;-64
2021/11/18 04:16:52;;;;;;;36.85;20.15;;;;;;;;;;5034924;28;20021;-64
2021/11/18 04:19:18;;;;;;;40.92;20.17;;;;;;;;;;5035022;28;20022;-65
2021/11/18 04:21:45;;;;;;;35.42;19.50;;;;;;;;;;5034486;28;20036;-65
2021/11/18 04:24:12;;;;;;;44.15;21.75;;;;;;;;;;5034411;28;20370;-64
2021/11/18 04:26:38;;;;;;;38.92;19.52;;;;;;;;;;5033252;28;20500;-64
2021/11/18 04:29:05;;;;;;;30.80;16.63;;;;;;;;;;5034392;28;20033;-64
2021/11/18 04:31:31;;;;;;;36.13;19.05;;;;;;;;;;5033108;28;20025;-64
2021/11/18 04:33:58;;;;;;;41.30;20.45;;;;;;;;;;5033989;28;20025;-64
2021/11/18 04:36:25;;;;;;;37.03;20.27;;;;;;;;;;5034265;28;20108;-64
2021/11/18 04:38:52;;;;;;;35.05;17.67;;;;;;;;;;5032991;28;20022;-64
2021/11/18 04:41:19;;;;;;;36.55;18.55;;;;;;;;;;5034198;28;20083;-64
2021/11/18 04:43:45;;;;;;;30.80;15.77;;;;;;;;;;5034354;28;20033;-63
2021/11/18 04:46:12;;;;;;;38.17;22.10;;;;;;;;;;5032949;28;20033;-64
2021/11/18 04:48:39;;;;;;;;;;;;;;;;;;5034479;28;20064;-64
2021/11/18 04:51:06;;;;;;;41.05;21.55;;;;;;;;;;5032948;28;20388;-64
2021/11/18 04:53:33;;;;;;;39.00;20.63;;;;;;;;;;5032655;28;20401;-64
2021/11/18 04:56:00;;;;;;;43.33;22.88;;;;;;;;;;5034160;28;20504;-64
2021/11/18 04:58:26;;;;;;;39.75;21.60;;;;;;;;;;5034208;28;20049;-64
2021/11/18 05:00:54;;;;;;;38.97;21.23;;;;;;;;;;5032955;28;20025;-64
2021/11/18 05:03:21;;;;;;;45.83;22.20;;;;;;;;;;5033545;28;20029;-64
2021/11/18 05:05:47;;;;;;;45.83;23.90;;;;;;;;;;5033932;28;20025;-64
2021/11/18 05:08:14;;;;;;;43.72;22.85;;;;;;;;;;5033782;28;20120;-64
2021/11/18 05:10:41;;;;;;;51.83;22.83;;;;;;;;;;5032587;28;20505;-64
2021/11/18 05:13:07;;;;;;;40.35;19.67;;;;;;;;;;5033386;28;20500;-64
2021/11/18 05:15:34;;;;;;;49.28;23.55;;;;;;;;;;5033929;28;20033;-64
2021/11/18 05:18:00;;;;;;;35.83;20.07;;;;;;;;;;5033766;28;20040;-64
2021/11/18 05:20:26;;;;;;;44.58;22.58;;;;;;;;;;5032164;28;20030;-64
2021/11/18 05:22:53;;;;;;;45.35;22.33;;;;;;;;;;5033279;28;20040;-63
2021/11/18 05:25:21;;;;;;;44.60;23.70;;;;;;;;;;5033567;28;20057;-64
2021/11/18 05:27:47;;;;;;;57.30;26.30;;;;;;;;;;5032204;28;20116;-64
2021/11/18 05:30:13;;;;;;;44.28;22.15;;;;;;;;;;5033454;28;20022;-63
2021/11/18 05:32:40;;;;;;;46.42;24.02;;;;;;;;;;5033056;28;20056;-65
2021/11/18 05:35:06;;;;;;;50.97;24.13;;;;;;;;;;5032430;28;20112;-64
2021/11/18 05:37:32;;;;;;;51.75;25.23;;;;;;;;;;5033224;28;20091;-64
2021/11/18 05:39:58;;;;;;;47.95;24.35;;;;;;;;;;5032122;28;20021;-64
2021/11/18 05:42:24;;;;;;;41.35;21.98;;;;;;;;;;5032876;28;20021;-63
2021/11/18 05:44:51;;;;;;;42.72;22.02;;;;;;;;;;5031075;28;20021;-64
2021/11/18 05:47:18;;;;;;;47.10;22.92;;;;;;;;;;5032970;28;20026;-64
2021/11/18 05:49:44;;;;;;;48.22;22.60;;;;;;;;;;5031589;28;20029;-64
2021/11/18 05:52:10;;;;;;;45.10;25.00;;;;;;;;;;5032543;28;20033;-65
2021/11/18 05:54:36;;;;;;;50.20;26.83;;;;;;;;;;5031472;28;20481;-65
2021/11/18 05:57:02;;;;;;;51.35;24.00;;;;;;;;;;5033005;28;20036;-65
2021/11/18 05:59:28;;;;;;;46.08;24.50;;;;;;;;;;5032590;28;20041;-64
2021/11/18 06:01:54;;;;;;;57.38;26.33;;;;;;;;;;5053537;22;20053;-66
2021/11/18 06:04:20;;;;;;;44.35;21.33;;;;;;;;;;5029563;28;20034;-65
2021/11/18 06:06:46;;;;;;;49.42;23.92;;;;;;;;;;5030956;28;20025;-66
2021/11/18 06:09:12;;;;;;;34.97;18.17;;;;;;;;;;5030621;28;20029;-65
2021/11/18 06:11:39;;;;;;;49.30;24.75;;;;;;;;;;5028994;28;20022;-66
2021/11/18 06:14:05;;;;;;;44.38;25.45;;;;;;;;;;5030699;28;20030;-65
2021/11/18 06:16:32;;;;;;;43.22;23.45;;;;;;;;;;5029202;28;20404;-66
2021/11/18 06:19:00;;;;;;;51.22;24.05;;;;;;;;;;5029138;28;20021;-66
2021/11/18 06:21:26;;;;;;;46.03;25.08;;;;;;;;;;5030402;28;20527;-65
2021/11/18 06:23:53;;;;;;;46.08;24.80;;;;;;;;;;5030195;28;20033;-66
2021/11/18 06:26:19;;;;;;;50.92;24.05;;;;;;;;;;5029274;28;20116;-65
2021/11/18 06:28:45;;;;;;;49.15;23.15;;;;;;;;;;5028149;28;20028;-66
2021/11/18 06:31:12;;;;;;;47.33;24.55;;;;;;;;;;5029701;28;20075;-64
2021/11/18 06:33:40;;;;;;;46.15;25.73;;;;;;;;;;5028677;28;20022;-66
2021/11/18 06:36:06;;;;;;;50.97;25.40;;;;;;;;;;5030053;28;20105;-66
2021/11/18 06:38:32;;;;;;;56.30;26.10;;;;;;;;;;5028701;28;20072;-65
2021/11/18 06:40:58;;;;;;;57.30;24.95;;;;;;;;;;5028570;28;20087;-66
2021/11/18 06:43:24;;;;;;;54.35;25.02;;;;;;;;;;5029752;28;20089;-66
2021/11/18 06:45:51;;;;;;;44.55;25.00;;;;;;;;;;5030196;28;20021;-65
2021/11/18 06:48:19;;;;;;;53.13;22.65;;;;;;;;;;5028588;28;20393;-65
2021/11/18 06:50:46;;;;;;;49.28;25.75;;;;;;;;;;5029819;28;20403;-64
2021/11/18 06:53:13;;;;;;;49.40;24.73;;;;;;;;;;5029571;28;20033;-64
2021/11/18 06:55:39;;;;;;;41.00;22.88;;;;;;;;;;5030125;28;20017;-66
2021/11/18 06:58:05;;;;;;;49.00;26.38;;;;;;;;;;5032236;28;20385;-64
2021/11/18 07:00:31;;;;;;;49.70;23.63;;;;;;;;;;5033875;28;20034;-66
2021/11/18 07:02:57;;;;;;;55.42;26.27;;;;;;;;;;5032405;28;20112;-65
2021/11/18 07:05:24;;;;;;;46.90;23.30;;;;;;;;;;5033679;28;20108;-66
2021/11/18 07:07:50;;;;;;;40.72;20.05;;;;;;;;;;5033778;28;20315;-67
2021/11/18 07:10:16;;;;;;;51.22;23.52;;;;;;;;;;5032584;28;20029;-66
2021/11/18 07:12:42;;;;;;;42.15;22.52;;;;;;;;;;5033399;28;20032;-66
2021/11/18 07:15:11;;;;;;;49.78;19.17;;;;;;;;;;5033733;28;20127;-66
2021/11/18 07:17:37;;;;;;;;;;;;;;;;;;5034078;28;20030;-66
2021/11/18 07:20:04;;;;;;;35.65;19.17;;;;;;;;;;5032083;28;19915;-65
2021/11/18 07:22:30;;;;;;;44.95;19.75;;;;;;;;;;5031684;28;20021;-65
2021/11/18 07:24:57;;;;;;;44.90;21.25;;;;;;;;;;5033394;28;20031;-65
2021/11/18 07:27:23;;;;;;;52.40;21.70;;;;;;;;;;5032013;28;20025;-65
2021/11/18 07:29:49;;;;;;;50.35;22.38;;;;;;;;;;5033626;28;20414;-65
2021/11/18 07:32:15;;;;;;;49.30;20.27;;;;;;;;;;5032982;28;20041;-65
2021/11/18 07:34:41;;;;;;;53.28;23.25;;;;;;;;;;5031458;28;20495;-65
2021/11/18 07:37:07;;;;;;;51.33;22.80;;;;;;;;;;5033170;28;20121;-66
2021/11/18 07:39:33;;;;;;;37.47;17.88;;;;;;;;;;5032999;28;20025;-67
2021/11/18 07:41:59;;;;;;;53.53;22.45;;;;;;;;;;5031636;28;20052;-64
2021/11/18 07:44:25;;;;;;;46.42;20.67;;;;;;;;;;5033073;28;20038;-66
2021/11/18 07:46:51;;;;;;;41.92;20.98;;;;;;;;;;5032781;28;20220;-66
2021/11/18 07:49:17;;;;;;;55.20;23.75;;;;;;;;;;5032797;28;20048;-65
2021/11/18 07:51:44;;;;;;;44.70;21.55;;;;;;;;;;5032679;28;20369;-65
2021/11/18 07:54:11;;;;;;;56.90;24.55;;;;;;;;;;5032941;28;20432;-66
2021/11/18 07:56:38;;;;;;;44.08;22.85;;;;;;;;;;5032929;28;20021;-65
2021/11/18 07:59:05;;;;;;;46.38;21.13;;;;;;;;;;5031316;28;20052;-66
2021/11/18 08:01:32;;;;;;;40.15;19.55;;;;;;;;;;5032496;28;20037;-66
2021/11/18 08:03:58;;;;;;;52.25;23.40;;;;;;;;;;5032468;28;20028;-65
2021/11/18 08:06:26;;;;;;;52.70;23.52;;;;;;;;;;5032644;28;20026;-66
2021/11/18 08:08:54;;;;;;;;;;;;;;;;;;5030985;28;20021;-66
2021/11/18 08:11:22;;;;;;;50.30;21.20;;;;;;;;;;5032422;28;19909;-65
2021/11/18 08:13:49;;;;;;;40.30;15.43;;;;;;;;;;5032354;28;20430;-65
2021/11/18 08:16:15;;;;;;;57.22;23.63;;;;;;;;;;5032445;28;20075;-65
2021/11/18 08:18:42;;;;;;;48.70;22.55;;;;;;;;;;5032575;28;20111;-66
2021/11/18 08:21:08;;;;;;;42.88;21.17;;;;;;;;;;5032136;28;20025;-65
2021/11/18 08:23:35;;;;;;;44.67;20.52;;;;;;;;;;5032329;28;20017;-65
2021/11/18 08:26:02;;;;;;;45.15;17.38;;;;;;;;;;5030773;28;20037;-65
2021/11/18 08:28:28;;;;;;;40.33;20.50;;;;;;;;;;5030575;28;20087;-65
2021/11/18 08:30:54;;;;;;;42.00;21.73;;;;;;;;;;5032008;28;20460;-65
2021/11/18 08:33:21;;;;;;;54.55;21.67;;;;;;;;;;5030580;28;20108;-65
2021/11/18 08:35:47;;;;;;;45.42;21.92;;;;;;;;;;5032034;28;20091;-65
2021/11/18 08:38:14;;;;;;;50.45;21.02;;;;;;;;;;5030929;28;20021;-69
2021/11/18 08:40:47;;;;;;;46.53;21.60;;;;;;;;;;5030829;28;20022;-69
2021/11/18 08:43:13;;;;;;;49.55;22.02;;;;;;;;;;5030621;28;20477;-70
2021/11/18 08:45:39;;;;;;;43.50;19.63;;;;;;;;;;5030527;28;20065;-70
2021/11/18 08:48:06;;;;;;;54.55;21.33;;;;;;;;;;5032001;28;20083;-66
2021/11/18 08:50:33;;;;;;;47.50;21.70;;;;;;;;;;5032040;28;20030;-66
2021/11/18 08:52:59;;;;;;;45.13;21.00;;;;;;;;;;5031994;28;20029;-68
2021/11/18 08:55:28;;;;;;;46.13;20.75;;;;;;;;;;5032663;28;20017;-68
2021/11/18 08:57:54;;;;;;;52.05;21.80;;;;;;;;;;5030515;28;20021;-67
2021/11/18 09:00:25;;;;;;;47.65;20.13;;;;;;;;;;5030566;28;20116;-65
2021/11/18 09:02:52;;;;;;;47.22;20.15;;;;;;;;;;5031851;28;20128;-66
2021/11/18 09:05:20;;;;;;;54.90;23.90;;;;;;;;;;5032041;28;20116;-64
2021/11/18 09:07:46;;;;;;;44.63;19.80;;;;;;;;;;5030570;28;20033;-66
2021/11/18 09:10:13;;;;;;;48.58;18.48;;;;;;;;;;5031593;28;20078;-64
2021/11/18 09:12:43;;;;;;;56.45;22.38;;;;;;;;;;5031595;28;20114;-66
2021/11/18 09:15:10;;;;;;;44.13;20.13;;;;;;;;;;5030503;28;20018;-65
2021/11/18 09:17:36;;;;;;;39.58;19.13;;;;;;;;;;5030545;28;20025;-65
2021/11/18 09:20:02;;;;;;;52.30;24.52;;;;;;;;;;5031686;28;20025;-66
2021/11/18 09:22:28;;;;;;;42.03;21.85;;;;;;;;;;5031154;28;20032;-66
2021/11/18 09:24:57;;;;;;;44.05;20.55;;;;;;;;;;5030147;28;20026;-66
2021/11/18 09:27:33;;;;;;;46.95;19.55;;;;;;;;;;5031187;28;20018;-65
2021/11/18 09:30:01;;;;;;;41.50;19.52;;;;;;;;;;5031438;28;20435;-66
2021/11/18 09:32:29;;;;;;;45.08;19.88;;;;;;;;;;5030748;28;20143;-65
2021/11/18 09:34:55;;;;;;;37.90;18.13;;;;;;;;;;5030491;28;20017;-65
2021/11/18 09:37:21;;;;;;;42.67;21.25;;;;;;;;;;5031368;28;20432;-64
2021/11/18 09:39:47;;;;;;;45.28;18.17;;;;;;;;;;5031149;28;20048;-66
2021/11/18 09:42:16;;;;;;;46.45;21.90;;;;;;;;;;5031067;28;20032;-67
2021/11/18 09:45:05;;;;;;;44.58;21.42;;;;;;;;;;5029724;28;20069;-65
2021/11/18 09:47:31;;;;;;;;;;;;;;;;;;5031575;28;20032;-67
2021/11/18 09:50:03;;;;;;;49.75;21.90;;;;;;;;;;5029601;28;19912;-67
2021/11/18 09:52:38;;;;;;;45.42;18.85;;;;;;;;;;5030330;28;20043;-67
2021/11/18 09:55:16;;;;;;;36.97;16.45;;;;;;;;;;5029822;28;20028;-66
2021/11/18 09:57:48;;;;;;;41.93;20.77;;;;;;;;;;4680609;28;9999959;-67
2021/11/18 10:00:33;;;;;;;41.65;19.55;;;;;;;;;;5027690;28;20318;-66
2021/11/18 10:02:59;;;;;;;33.38;16.77;;;;;;;;;;5027673;28;20087;-67
2021/11/18 10:05:25;;;;;;;39.55;19.80;;;;;;;;;;5027891;28;20025;-67
2021/11/18 10:07:54;;;;;;;34.55;17.52;;;;;;;;;;5028039;28;20029;-69
2021/11/18 10:10:19;;;;;;;;;;;;;;;;;;5027013;28;20377;-68
2021/11/18 10:12:48;;;;;;;32.97;17.15;;;;;;;;;;5026955;28;19928;-68
2021/11/18 10:15:20;;;;;;;39.10;17.92;;;;;;;;;;5028337;28;20029;-68
2021/11/18 10:17:53;;;;;;;39.25;19.30;;;;;;;;;;5027134;28;20044;-67
2021/11/18 10:20:24;;;;;;;47.22;19.98;;;;;;;;;;5028502;28;20544;-65
2021/11/18 10:23:03;;;;;;;40.60;21.25;;;;;;;;;;5026605;28;20071;-66
2021/11/18 10:25:32;;;;;;;43.92;17.20;;;;;;;;;;5027855;28;20034;-70
2021/11/18 10:28:17;;;;;;;39.67;19.30;;;;;;;;;;5028088;28;20416;-67
2021/11/18 10:30:48;;;;;;;38.22;19.00;;;;;;;;;;5027105;28;20091;-71
2021/11/18 10:33:16;;;;;;;43.78;19.85;;;;;;;;;;5030254;28;20018;-70
2021/11/18 10:35:54;;;;;;;37.33;17.77;;;;;;;;;;5029945;28;20063;-70
2021/11/18 10:38:25;;;;;;;34.30;16.55;;;;;;;;;;5028227;28;20025;-70
2021/11/18 10:41:03;;;;;;;37.03;16.80;;;;;;;;;;5028981;28;20065;-69
2021/11/18 10:43:32;;;;;;;37.08;17.40;;;;;;;;;;5029009;28;20022;-71
2021/11/18 10:46:12;;;;;;;41.33;15.95;;;;;;;;;;5028938;28;20025;-69
2021/11/18 10:48:54;;;;;;;34.30;16.55;;;;;;;;;;5029133;28;20148;-71
2021/11/18 10:51:26;;;;;;;43.70;15.63;;;;;;;;;;5029421;28;20029;-70
2021/11/18 10:53:52;;;;;;;39.33;17.25;;;;;;;;;;5028362;28;20037;-70
2021/11/18 10:56:20;;;;;;;42.83;16.00;;;;;;;;;;5030217;28;20301;-70
2021/11/18 10:58:48;;;;;;;41.92;14.63;;;;;;;;;;5030492;28;20365;-69
2021/11/18 11:01:20;;;;;;;39.13;16.60;;;;;;;;;;5029119;28;20060;-70
2021/11/18 11:03:46;;;;;;;35.03;17.00;;;;;;;;;;5030256;28;20025;-70
2021/11/18 11:06:15;;;;;;;40.17;16.50;;;;;;;;;;5029099;28;20119;-70
2021/11/18 11:08:41;;;;;;;;;;;;;;;;;;5030987;28;20045;-69
2021/11/18 11:11:12;;;;;;;31.63;13.00;;;;;;;;;;5030424;28;19913;-69
2021/11/18 11:13:41;;;;;;;38.10;15.75;;;;;;;;;;5030138;28;20026;-68
2021/11/18 11:16:20;;;;;;;37.80;12.98;;;;;;;;;;5030332;28;20026;-70
2021/11/18 11:18:50;;;;;;;27.80;13.20;;;;;;;;;;5028888;28;20025;-70
2021/11/18 11:21:19;;;;;;;38.80;15.07;;;;;;;;;;5028996;28;20040;-70
2021/11/18 11:23:51;;;;;;;31.83;15.00;;;;;;;;;;5030424;28;20022;-70
2021/11/18 11:26:20;;;;;;;35.63;15.20;;;;;;;;;;5030198;28;20113;-69
2021/11/18 11:28:52;;;;;;;32.13;15.25;;;;;;;;;;5028736;28;20028;-70
2021/11/18 11:31:27;;;;;;;31.52;13.80;;;;;;;;;;5028686;28;20388;-70
2021/11/18 11:34:12;;;;;;;28.50;14.27;;;;;;;;;;5028493;28;20048;-69
2021/11/18 11:36:42;;;;;;;27.23;12.65;;;;;;;;;;5028834;28;20018;-70
2021/11/18 11:39:10;;;;;;;26.67;13.90;;;;;;;;;;5029139;28;20021;-69
2021/11/18 11:41:56;;;;;;;27.80;12.27;;;;;;;;;;5029526;28;20479;-69
2021/11/18 11:44:42;;;;;;;32.85;13.07;;;;;;;;;;5032397;28;20392;-70
2021/11/18 11:47:26;;;;;;;31.63;14.70;;;;;;;;;;5033984;28;20021;-71
2021/11/18 11:49:55;;;;;;;30.67;12.45;;;;;;;;;;5033658;28;20045;-71
2021/11/18 11:52:37;;;;;;;27.42;12.10;;;;;;;;;;5033051;28;20029;-72
2021/11/18 11:55:06;;;;;;;27.40;12.30;;;;;;;;;;5033671;28;20029;-71
2021/11/18 11:57:47;;;;;;;32.80;15.07;;;;;;;;;;5032173;28;20515;-71
2021/11/18 12:00:18;;;;;;;31.63;14.25;;;;;;;;;;5033342;28;20049;-70
2021/11/18 12:02:51;;;;;;;30.00;13.32;;;;;;;;;;5049204;23;20049;-68
2021/11/18 12:05:33;;;;;;;30.35;15.32;;;;;;;;;;5034080;28;20034;-69
2021/11/18 12:08:05;;;;;;;29.30;13.23;;;;;;;;;;5034161;28;20045;-68
2021/11/18 12:10:34;;;;;;;27.55;13.57;;;;;;;;;;5034773;28;20504;-68
2021/11/18 12:13:02;;;;;;;26.08;13.63;;;;;;;;;;5033384;28;20374;-69
2021/11/18 12:15:29;;;;;;;25.05;13.75;;;;;;;;;;5033948;28;20029;-70
2021/11/18 12:18:11;;;;;;;29.08;13.88;;;;;;;;;;5035024;28;20082;-69
2021/11/18 12:20:38;;;;;;;30.42;12.80;;;;;;;;;;5033764;28;20026;-69
2021/11/18 12:23:08;;;;;;;34.05;13.38;;;;;;;;;;5034286;28;20397;-68
2021/11/18 12:25:34;;;;;;;28.00;14.40;;;;;;;;;;5033515;28;20025;-69
2021/11/18 12:28:01;;;;;;;32.33;15.30;;;;;;;;;;5032931;28;20406;-69
2021/11/18 12:30:31;;;;;;;28.42;13.88;;;;;;;;;;5033053;28;20032;-70
2021/11/18 12:32:59;;;;;;;28.38;14.07;;;;;;;;;;5034241;28;20033;-69
2021/11/18 12:35:28;;;;;;;24.58;11.93;;;;;;;;;;5034202;28;20049;-68
2021/11/18 12:38:00;;;;;;;27.33;14.20;;;;;;;;;;5032801;28;20369;-68
2021/11/18 12:40:45;;;;;;;25.05;12.98;;;;;;;;;;5032531;28;20024;-68
2021/11/18 12:43:11;;;;;;;24.88;13.23;;;;;;;;;;5032713;28;20036;-69
2021/11/18 12:45:46;;;;;;;28.27;13.15;;;;;;;;;;5033082;28;20040;-68
2021/11/18 12:48:18;;;;;;;27.50;14.20;;;;;;;;;;5034249;28;20026;-69
2021/11/18 12:50:49;;;;;;;25.25;14.02;;;;;;;;;;5032812;28;20029;-67
2021/11/18 12:53:17;;;;;;;24.20;13.68;;;;;;;;;;5032319;28;20132;-69
2021/11/18 12:55:43;;;;;;;;;;;;;;;;;;5032619;28;20109;-69
2021/11/18 12:58:24;;;;;;;27.67;13.07;;;;;;;;;;5032867;28;19956;-67
2021/11/18 13:01:20;;;;;;;25.90;13.15;;;;;;;;;;5032050;28;20018;-69
2021/11/18 13:03:49;;;;;;;24.00;12.00;;;;;;;;;;5015123;28;20060;-69
2021/11/18 13:06:39;;;;;;;27.83;13.18;;;;;;;;;;5032520;28;20047;-69
2021/11/18 13:09:06;;;;;;;27.92;11.95;;;;;;;;;;5023101;28;20044;-69
2021/11/18 13:11:34;;;;;;;26.30;11.98;;;;;;;;;;5034379;28;20033;-68
2021/11/18 13:14:10;;;;;;;25.83;11.90;;;;;;;;;;5032380;28;20031;-69
2021/11/18 13:16:48;;;;;;;28.63;12.40;;;;;;;;;;5033701;28;20028;-69
2021/11/18 13:19:14;;;;;;;21.90;11.98;;;;;;;;;;5033076;28;20017;-69
2021/11/18 13:21:47;;;;;;;24.85;12.18;;;;;;;;;;5033597;28;20025;-69
2021/11/18 13:24:13;;;;;;;22.40;11.02;;;;;;;;;;5033370;28;20052;-69
2021/11/18 13:26:50;;;;;;;21.88;11.70;;;;;;;;;;5032148;28;20103;-69
2021/11/18 13:29:24;;;;;;;24.10;12.73;;;;;;;;;;5032200;28;20033;-69
2021/11/18 13:31:59;;;;;;;27.17;11.77;;;;;;;;;;5031719;28;20030;-69
2021/11/18 13:34:27;;;;;;;26.33;12.60;;;;;;;;;;5031447;28;20027;-69
2021/11/18 13:37:02;;;;;;;26.07;11.73;;;;;;;;;;5034603;28;20022;-69
2021/11/18 13:39:37;;;;;;;28.08;13.20;;;;;;;;;;5031895;28;20315;-69
2021/11/18 13:42:16;;;;;;;27.77;12.13;;;;;;;;;;5031558;28;20056;-69
2021/11/18 13:44:42;;;;;;;21.45;11.93;;;;;;;;;;5032941;28;20507;-69
2021/11/18 13:47:24;;;;;;;26.00;14.23;;;;;;;;;;5032841;28;20022;-69
2021/11/18 13:49:51;;;;;;;30.10;12.98;;;;;;;;;;5031464;28;20029;-69
2021/11/18 13:52:19;;;;;;;22.35;11.13;;;;;;;;;;5032382;28;20030;-69
2021/11/18 13:54:51;;;;;;;27.17;12.38;;;;;;;;;;5031605;28;20032;-69
2021/11/18 13:57:19;;;;;;;27.33;12.38;;;;;;;;;;5031321;28;20026;-68
2021/11/18 13:59:53;;;;;;;25.70;12.95;;;;;;;;;;5031527;28;20592;-69
2021/11/18 14:02:21;;;;;;;26.52;12.60;;;;;;;;;;5032515;28;20041;-69
2021/11/18 14:04:55;;;;;;;30.27;11.80;;;;;;;;;;5031237;28;20059;-69
2021/11/18 14:07:21;;;;;;;23.67;11.88;;;;;;;;;;5032436;28;20264;-69
2021/11/18 14:09:50;;;;;;;21.67;11.07;;;;;;;;;;5031325;28;20029;-68
2021/11/18 14:12:16;;;;;;;;;;;;;;;;;;5031566;28;20060;-69
2021/11/18 14:14:47;;;;;;;23.27;11.90;;;;;;;;;;5031229;28;19961;-68
2021/11/18 14:17:15;;;;;;;20.92;11.93;;;;;;;;;;5031332;28;20117;-68
2021/11/18 14:20:01;;;;;;;25.55;11.95;;;;;;;;;;5031355;28;20182;-67
2021/11/18 14:22:29;;;;;;;27.83;11.18;;;;;;;;;;5001456;28;20037;-68
2021/11/18 14:24:57;;;;;;;25.98;11.32;;;;;;;;;;5032536;28;20026;-68
2021/11/18 14:27:25;;;;;;;25.15;11.48;;;;;;;;;;5032357;28;20104;-68
2021/11/18 14:30:01;;;;;;;23.98;10.65;;;;;;;;;;5032081;28;20112;-68